createdAt,value
2019-04-01T00:00:18.268Z,15.97
2019-04-01T00:02:47.664Z,17.67
2019-04-01T00:05:17.311Z,16.73
2019-04-01T00:07:46.686Z,15.43
2019-04-01T00:10:16.064Z,16.87
2019-04-01T00:12:45.462Z,15.97
2019-04-01T00:15:15.082Z,15.73
2019-04-01T00:17:44.414Z,16.17
2019-04-01T00:20:13.847Z,17.30
2019-04-01T00:22:43.274Z,14.87
2019-04-01T00:25:13.209Z,16.23
2019-04-01T00:27:42.586Z,15.40
2019-04-01T00:30:12.091Z,15.63
2019-04-01T00:32:41.490Z,16.57
2019-04-01T00:35:11.240Z,16.70
2019-04-01T00:37:40.665Z,16.17
2019-04-01T00:40:10.735Z,16.17
2019-04-01T00:42:41.719Z,16.50
2019-04-01T00:45:15.690Z,16.70
2019-04-01T00:47:45.043Z,14.90
2019-04-01T00:50:14.436Z,16.03
2019-04-01T00:52:43.774Z,15.07
2019-04-01T00:55:13.092Z,16.40
2019-04-01T00:57:42.651Z,16.13
2019-04-01T01:00:13.697Z,15.23
2019-04-01T01:02:43.026Z,15.37
2019-04-01T01:05:12.362Z,15.23
2019-04-01T01:07:42.011Z,14.83
2019-04-01T01:10:11.790Z,13.77
2019-04-01T01:12:41.167Z,16.03
2019-04-01T01:15:10.757Z,14.80
2019-04-01T01:17:40.157Z,14.40
2019-04-01T01:20:09.921Z,14.23
2019-04-01T01:22:39.493Z,14.10
2019-04-01T01:25:09.083Z,14.13
2019-04-01T01:27:38.389Z,13.73
2019-04-01T01:30:20.364Z,13.17
2019-04-01T01:32:49.752Z,13.30
2019-04-01T01:35:19.133Z,13.60
2019-04-01T01:37:49.818Z,13.37
2019-04-01T01:40:19.296Z,12.97
2019-04-01T01:42:48.715Z,13.23
2019-04-01T01:45:18.126Z,13.23
2019-04-01T01:47:47.840Z,11.93
2019-04-01T01:50:17.305Z,13.07
2019-04-01T01:52:46.665Z,12.37
2019-04-01T01:55:16.117Z,12.10
2019-04-01T01:57:45.558Z,11.63
2019-04-01T02:00:15.708Z,11.60
2019-04-01T02:02:45.114Z,11.70
2019-04-01T02:05:14.739Z,10.93
2019-04-01T02:07:44.130Z,10.83
2019-04-01T02:10:13.810Z,11.40
2019-04-01T02:12:43.131Z,10.83
2019-04-01T02:15:12.640Z,11.13
2019-04-01T02:17:42.095Z,10.53
2019-04-01T02:20:11.724Z,11.07
2019-04-01T02:22:41.102Z,10.77
2019-04-01T02:25:10.606Z,11.80
2019-04-01T02:27:40.007Z,11.00
2019-04-01T02:30:09.585Z,10.30
2019-04-01T02:32:39.225Z,10.93
2019-04-01T02:35:08.846Z,11.07
2019-04-01T02:37:38.484Z,11.07
2019-04-01T02:40:08.156Z,11.00
2019-04-01T02:42:37.538Z,11.80
2019-04-01T02:45:07.173Z,10.70
2019-04-01T02:47:36.525Z,10.77
2019-04-01T02:50:06.771Z,10.37
2019-04-01T02:52:37.143Z,11.27
2019-04-01T02:55:08.124Z,9.83
2019-04-01T02:57:37.753Z,10.00
2019-04-01T03:00:07.622Z,10.93
2019-04-01T03:02:37.190Z,10.43
2019-04-01T03:05:06.751Z,9.73
2019-04-01T03:07:36.150Z,10.60
2019-04-01T03:10:06.553Z,11.03
2019-04-01T03:12:36.102Z,9.30
2019-04-01T03:15:11.589Z,9.70
2019-04-01T03:17:41.028Z,9.03
2019-04-01T03:20:10.705Z,9.83
2019-04-01T03:22:41.115Z,9.70
2019-04-01T03:25:10.602Z,10.40
2019-04-01T03:27:39.955Z,9.73
2019-04-01T03:30:09.967Z,9.27
2019-04-01T03:32:44.522Z,9.47
2019-04-01T03:35:10.492Z,8.73
2019-04-01T03:37:40.087Z,8.13
2019-04-01T03:40:09.528Z,8.50
2019-04-01T03:42:39.313Z,8.67
2019-04-01T03:45:09.036Z,8.17
2019-04-01T03:47:38.460Z,8.17
2019-04-01T03:50:08.162Z,8.27
2019-04-01T03:52:37.482Z,8.83
2019-04-01T03:55:06.963Z,7.67
2019-04-01T03:57:36.355Z,8.37
2019-04-01T04:00:07.709Z,8.23
2019-04-01T04:02:37.100Z,7.97
2019-04-01T04:05:06.955Z,7.10
2019-04-01T04:07:36.370Z,8.37
2019-04-01T04:10:07.298Z,7.90
2019-04-01T04:12:36.689Z,7.63
2019-04-01T04:15:06.614Z,7.00
2019-04-01T04:17:36.028Z,7.37
2019-04-01T04:20:05.711Z,7.23
2019-04-01T04:22:35.169Z,6.80
2019-04-01T04:25:06.082Z,7.10
2019-04-01T04:27:35.431Z,7.30
2019-04-01T04:30:06.595Z,7.63
2019-04-01T04:32:36.028Z,6.90
2019-04-01T04:35:06.782Z,7.07
2019-04-01T04:37:36.378Z,7.10
2019-04-01T04:40:07.132Z,7.13
2019-04-01T04:42:36.523Z,6.93
2019-04-01T04:45:06.982Z,6.13
2019-04-01T04:47:36.414Z,6.27
2019-04-01T04:50:06.126Z,7.00
2019-04-01T04:52:35.754Z,6.03
2019-04-01T04:55:05.816Z,6.33
2019-04-01T04:57:35.606Z,6.20
2019-04-01T05:00:06.729Z,6.23
2019-04-01T05:02:36.303Z,5.93
2019-04-01T05:05:07.175Z,6.23
2019-04-01T05:07:36.547Z,6.13
2019-04-01T05:10:07.615Z,6.07
2019-04-01T05:12:37.258Z,14.83
2019-04-01T05:15:07.652Z,8.83
2019-04-01T05:17:37.131Z,6.73
2019-04-01T05:20:06.679Z,6.63
2019-04-01T05:22:36.707Z,8.27
2019-04-01T05:25:06.076Z,6.57
2019-04-01T05:27:37.226Z,6.63
2019-04-01T05:30:07.167Z,6.27
2019-04-01T05:32:37.579Z,6.40
2019-04-01T05:35:08.285Z,6.23
2019-04-01T05:37:39.066Z,5.73
2019-04-01T05:40:09.282Z,6.40
2019-04-01T05:42:38.721Z,5.70
2019-04-01T05:45:08.412Z,5.37
2019-04-01T05:47:48.877Z,5.90
2019-04-01T05:50:19.566Z,5.37
2019-04-01T05:52:49.556Z,5.57
2019-04-01T05:55:19.041Z,5.40
2019-04-01T05:57:49.809Z,5.43
2019-04-01T06:00:21.079Z,5.03
2019-04-01T06:02:50.584Z,5.03
2019-04-01T06:05:20.011Z,5.10
2019-04-01T06:07:49.454Z,4.73
2019-04-01T06:10:18.888Z,4.77
2019-04-01T06:12:48.852Z,4.90
2019-04-01T06:15:18.324Z,5.00
2019-04-01T06:17:47.804Z,4.67
2019-04-01T06:20:17.330Z,4.60
2019-04-01T06:22:46.923Z,4.70
2019-04-01T06:25:16.482Z,4.30
2019-04-01T06:27:45.873Z,5.17
2019-04-01T06:30:15.426Z,4.87
2019-04-01T06:32:44.901Z,4.77
2019-04-01T06:35:14.456Z,4.67
2019-04-01T06:37:44.051Z,5.03
2019-04-01T06:40:13.615Z,5.27
2019-04-01T06:42:43.051Z,5.20
2019-04-01T06:45:12.928Z,5.47
2019-04-01T06:47:42.572Z,4.87
2019-04-01T06:50:12.537Z,5.40
2019-04-01T06:52:42.081Z,5.50
2019-04-01T06:55:11.599Z,4.93
2019-04-01T06:57:41.330Z,5.20
2019-04-01T07:00:11.110Z,6.10
2019-04-01T07:02:40.958Z,6.27
2019-04-01T07:05:12.812Z,5.60
2019-04-01T07:07:42.294Z,5.67
2019-04-01T07:10:12.369Z,5.87
2019-04-01T07:12:41.909Z,7.57
2019-04-01T07:15:11.500Z,7.70
2019-04-01T07:17:41.495Z,7.50
2019-04-01T07:20:10.974Z,5.77
2019-04-01T07:22:40.380Z,6.23
2019-04-01T07:25:10.049Z,5.67
2019-04-01T07:27:39.586Z,6.50
2019-04-01T07:30:09.467Z,6.77
2019-04-01T07:32:39.072Z,7.10
2019-04-01T07:35:08.574Z,6.97
2019-04-01T07:37:38.522Z,6.50
2019-04-01T07:40:09.175Z,7.40
2019-04-01T07:42:38.933Z,7.83
2019-04-01T07:45:08.686Z,7.33
2019-04-01T07:47:38.098Z,7.90
2019-04-01T07:50:07.742Z,7.57
2019-04-01T07:52:37.197Z,8.00
2019-04-01T07:55:07.661Z,7.33
2019-04-01T07:57:37.503Z,7.37
2019-04-01T08:00:07.560Z,7.40
2019-04-01T08:02:36.952Z,7.13
2019-04-01T08:05:06.730Z,7.03
2019-04-01T08:07:36.251Z,8.03
2019-04-01T08:10:07.858Z,7.60
2019-04-01T08:12:37.769Z,7.43
2019-04-01T08:15:08.008Z,7.97
2019-04-01T08:17:37.492Z,7.10
2019-04-01T08:20:08.252Z,7.70
2019-04-01T08:22:37.760Z,8.03
2019-04-01T08:25:07.531Z,8.00
2019-04-01T08:27:36.951Z,7.10
2019-04-01T08:30:08.220Z,8.00
2019-04-01T08:32:37.718Z,7.53
2019-04-01T08:35:07.557Z,7.10
2019-04-01T08:37:40.013Z,8.43
2019-04-01T08:40:09.270Z,8.10
2019-04-01T08:42:38.798Z,8.30
2019-04-01T08:45:09.210Z,8.40
2019-04-01T08:47:38.719Z,8.33
2019-04-01T08:50:08.968Z,8.27
2019-04-01T08:52:38.422Z,9.67
2019-04-01T08:55:08.102Z,8.60
2019-04-01T08:57:38.525Z,8.57
2019-04-01T09:00:08.866Z,9.57
2019-04-01T09:02:38.395Z,9.17
2019-04-01T09:05:08.142Z,9.50
2019-04-01T09:07:37.541Z,9.80
2019-04-01T09:10:07.201Z,10.40
2019-04-01T09:12:36.679Z,10.03
2019-04-01T09:15:06.704Z,10.83
2019-04-01T09:17:39.921Z,10.57
2019-04-01T09:20:07.529Z,10.53
2019-04-01T09:22:36.989Z,10.17
2019-04-01T09:25:06.831Z,10.10
2019-04-01T09:27:36.379Z,9.63
2019-04-01T09:30:07.868Z,11.00
2019-04-01T09:32:37.389Z,10.83
2019-04-01T09:35:07.553Z,10.37
2019-04-01T09:37:37.068Z,10.40
2019-04-01T09:40:08.243Z,10.87
2019-04-01T09:42:37.852Z,10.67
2019-04-01T09:45:08.377Z,10.30
2019-04-01T09:47:37.811Z,10.67
2019-04-01T09:50:07.580Z,11.07
2019-04-01T09:52:37.015Z,11.87
2019-04-01T09:55:06.909Z,11.70
2019-04-01T09:57:36.378Z,10.50
2019-04-01T10:00:08.811Z,10.70
2019-04-01T10:02:38.664Z,12.43
2019-04-01T10:05:08.327Z,10.93
2019-04-01T10:07:37.921Z,11.40
2019-04-01T10:10:08.009Z,11.10
2019-04-01T10:12:37.706Z,11.63
2019-04-01T10:15:08.447Z,12.37
2019-04-01T10:17:38.279Z,10.90
2019-04-01T10:20:09.150Z,11.63
2019-04-01T10:22:38.568Z,12.37
2019-04-01T10:25:08.595Z,12.57
2019-04-01T10:27:38.417Z,11.67
2019-04-01T10:30:09.575Z,12.93
2019-04-01T10:32:39.126Z,10.90
2019-04-01T10:35:09.286Z,11.87
2019-04-01T10:37:38.732Z,11.87
2019-04-01T10:40:08.596Z,11.77
2019-04-01T10:42:42.527Z,12.27
2019-04-01T10:45:12.226Z,12.30
2019-04-01T10:47:41.663Z,12.53
2019-04-01T10:50:12.302Z,12.97
2019-04-01T10:52:44.053Z,12.53
2019-04-01T10:55:13.145Z,12.10
2019-04-01T10:57:43.611Z,12.60
2019-04-01T11:00:14.366Z,13.33
2019-04-01T11:02:44.055Z,12.10
2019-04-01T11:05:13.840Z,12.77
2019-04-01T11:07:43.774Z,12.07
2019-04-01T11:10:13.502Z,12.77
2019-04-01T11:12:43.116Z,12.87
2019-04-01T11:15:15.509Z,12.43
2019-04-01T11:17:44.585Z,13.60
2019-04-01T11:20:14.112Z,13.47
2019-04-01T11:22:43.762Z,13.30
2019-04-01T11:25:14.469Z,12.93
2019-04-01T11:27:44.047Z,13.80
2019-04-01T11:30:14.228Z,13.30
2019-04-01T11:32:43.783Z,13.97
2019-04-01T11:35:13.360Z,14.73
2019-04-01T11:37:43.077Z,14.47
2019-04-01T11:40:12.908Z,13.90
2019-04-01T11:42:42.543Z,13.23
2019-04-01T11:45:12.311Z,13.43
2019-04-01T11:47:41.954Z,13.73
2019-04-01T11:50:11.693Z,13.97
2019-04-01T11:52:41.108Z,14.20
2019-04-01T11:55:10.738Z,14.00
2019-04-01T11:57:40.969Z,12.30
2019-04-01T12:00:13.485Z,12.50
2019-04-01T12:02:43.306Z,14.03
2019-04-01T12:05:12.873Z,13.37
2019-04-01T12:07:42.633Z,14.23
2019-04-01T12:10:12.237Z,13.67
2019-04-01T12:12:41.732Z,13.63
2019-04-01T12:15:12.785Z,14.27
2019-04-01T12:17:42.691Z,13.50
2019-04-01T12:20:12.235Z,12.03
2019-04-01T12:22:45.476Z,12.73
2019-04-01T12:25:12.978Z,13.17
2019-04-01T12:27:45.142Z,12.13
2019-04-01T12:30:14.845Z,13.13
2019-04-01T12:32:44.612Z,12.67
2019-04-01T12:35:14.184Z,12.50
2019-04-01T12:37:43.693Z,12.03
2019-04-01T12:40:13.627Z,12.23
2019-04-01T12:42:43.218Z,12.03
2019-04-01T12:45:13.119Z,11.77
2019-04-01T12:47:43.571Z,12.43
2019-04-01T12:50:14.527Z,11.60
2019-04-01T12:52:44.095Z,12.73
2019-04-01T12:55:14.036Z,11.67
2019-04-01T12:57:48.193Z,12.43
2019-04-01T13:00:17.002Z,11.87
2019-04-01T13:02:49.482Z,12.37
2019-04-01T13:05:19.484Z,11.77
2019-04-01T13:07:50.415Z,10.80
2019-04-01T13:10:21.410Z,11.10
2019-04-01T13:12:54.176Z,10.73
2019-04-01T13:15:22.611Z,10.80
2019-04-01T13:17:52.052Z,11.27
2019-04-01T13:20:36.456Z,11.77
2019-04-01T13:22:52.738Z,11.20
2019-04-01T13:25:22.371Z,10.97
2019-04-01T13:27:52.217Z,10.80
2019-04-01T13:30:24.172Z,10.40
2019-04-01T13:32:52.839Z,10.90
2019-04-01T13:35:22.686Z,11.00
2019-04-01T13:37:52.115Z,11.13
2019-04-01T13:40:21.702Z,10.87
2019-04-01T13:42:51.509Z,11.20
2019-04-01T13:45:21.558Z,10.13
2019-04-01T13:47:52.221Z,10.30
2019-04-01T13:50:22.539Z,11.50
2019-04-01T13:52:52.839Z,10.57
2019-04-01T13:55:22.332Z,10.73
2019-04-01T13:57:52.648Z,10.80
2019-04-01T14:00:25.323Z,10.13
2019-04-01T14:02:53.897Z,10.20
2019-04-01T14:05:24.955Z,11.23
2019-04-01T14:07:54.521Z,10.60
2019-04-01T14:10:24.890Z,9.63
2019-04-01T14:12:55.171Z,11.13
2019-04-01T14:15:24.806Z,10.60
2019-04-01T14:17:55.292Z,10.50
2019-04-01T14:20:24.906Z,9.37
2019-04-01T14:22:55.021Z,9.63
2019-04-01T14:25:27.470Z,9.23
2019-04-01T14:27:59.214Z,9.43
2019-04-01T14:30:29.735Z,10.00
2019-04-01T14:33:00.778Z,9.57
2019-04-01T14:35:30.765Z,10.03
2019-04-01T14:38:02.627Z,10.27
2019-04-01T14:40:33.093Z,9.37
2019-04-01T14:43:03.069Z,10.67
2019-04-01T14:45:32.513Z,10.63
2019-04-01T14:48:02.376Z,9.27
2019-04-01T14:50:31.877Z,9.87
2019-04-01T14:53:02.378Z,9.10
2019-04-01T14:55:32.031Z,9.57
2019-04-01T14:58:01.553Z,8.63
2019-04-01T15:00:30.913Z,9.13
2019-04-01T15:03:00.433Z,8.83
2019-04-01T15:05:33.161Z,9.43
2019-04-01T15:08:06.881Z,9.20
2019-04-01T15:10:36.627Z,9.27
2019-04-01T15:13:06.514Z,8.73
2019-04-01T15:15:36.023Z,9.07
2019-04-01T15:18:09.850Z,9.67
2019-04-01T15:20:38.960Z,8.97
2019-04-01T15:23:08.539Z,9.43
2019-04-01T15:25:38.171Z,9.30
2019-04-01T15:28:07.737Z,8.47
2019-04-01T15:30:37.179Z,9.07
2019-04-01T15:33:07.798Z,8.30
2019-04-01T15:35:37.139Z,9.37
2019-04-01T15:38:06.687Z,9.53
2019-04-01T15:40:36.149Z,8.93
2019-04-01T15:43:05.853Z,9.50
2019-04-01T15:45:36.203Z,8.17
2019-04-01T15:48:05.587Z,9.27
2019-04-01T15:50:35.132Z,8.57
2019-04-01T15:53:04.801Z,8.97
2019-04-01T15:55:34.565Z,9.30
2019-04-01T15:58:04.305Z,9.10
2019-04-01T16:00:33.829Z,8.40
2019-04-01T16:03:03.429Z,8.97
2019-04-01T16:05:34.223Z,8.63
2019-04-01T16:08:04.081Z,8.67
2019-04-01T16:10:33.550Z,7.83
2019-04-01T16:13:03.961Z,9.10
2019-04-01T16:15:33.352Z,8.27
2019-04-01T16:18:03.082Z,8.90
2019-04-01T16:20:34.041Z,7.93
2019-04-01T16:23:03.877Z,7.27
2019-04-01T16:25:33.307Z,8.97
2019-04-01T16:28:03.103Z,7.83
2019-04-01T16:30:32.613Z,7.87
2019-04-01T16:33:02.263Z,7.33
2019-04-01T16:35:31.668Z,8.10
2019-04-01T16:38:01.363Z,8.17
2019-04-01T16:40:30.930Z,8.20
2019-04-01T16:43:00.508Z,7.37
2019-04-01T16:45:30.244Z,7.33
2019-04-01T16:48:02.263Z,7.93
2019-04-01T16:50:31.797Z,7.57
2019-04-01T16:53:01.981Z,7.53
2019-04-01T16:55:31.394Z,7.27
2019-04-01T16:58:03.053Z,8.37
2019-04-01T17:00:32.676Z,7.83
2019-04-01T17:03:02.877Z,9.07
2019-04-01T17:05:33.999Z,10.40
2019-04-01T17:08:04.075Z,8.37
2019-04-01T17:10:36.410Z,7.87
2019-04-01T17:13:08.728Z,8.27
2019-04-01T17:15:38.606Z,8.47
2019-04-01T17:18:08.499Z,7.77
2019-04-01T17:20:38.301Z,8.90
2019-04-01T17:23:09.559Z,10.53
2019-04-01T17:25:39.846Z,9.67
2019-04-01T17:28:09.403Z,8.97
2019-04-01T17:30:38.925Z,7.97
2019-04-01T17:33:08.868Z,8.87
2019-04-01T17:35:41.115Z,8.73
2019-04-01T17:38:13.689Z,8.77
2019-04-01T17:40:42.739Z,8.67
2019-04-01T17:43:13.641Z,8.10
2019-04-01T17:45:45.536Z,7.90
2019-04-01T17:48:18.852Z,7.53
2019-04-01T17:50:48.392Z,7.23
2019-04-01T17:53:18.008Z,7.43
2019-04-01T17:55:48.496Z,6.80
2019-04-01T17:58:18.733Z,7.13
2019-04-01T18:00:50.235Z,7.27
2019-04-01T18:03:19.991Z,6.33
2019-04-01T18:05:50.033Z,6.63
2019-04-01T18:08:20.051Z,5.87
2019-04-01T18:10:49.701Z,6.20
2019-04-01T18:13:19.232Z,6.60
2019-04-01T18:15:49.035Z,6.23
2019-04-01T18:18:26.619Z,6.07
2019-04-01T18:20:49.826Z,6.10
2019-04-01T18:23:21.883Z,5.40
2019-04-01T18:25:50.589Z,5.73
2019-04-01T18:28:21.029Z,5.97
2019-04-01T18:30:50.656Z,6.43
2019-04-01T18:33:20.495Z,5.60
2019-04-01T18:35:49.963Z,5.63
2019-04-01T18:38:19.392Z,6.07
2019-04-01T18:40:48.983Z,5.47
2019-04-01T18:43:18.529Z,6.03
2019-04-01T18:45:48.207Z,6.67
2019-04-01T18:48:19.346Z,5.43
2019-04-01T18:50:48.704Z,5.30
2019-04-01T18:53:18.490Z,5.80
2019-04-01T18:55:48.528Z,5.63
2019-04-01T18:58:17.984Z,5.80
2019-04-01T19:00:47.995Z,6.43
2019-04-01T19:03:17.483Z,5.27
2019-04-01T19:05:47.587Z,6.43
2019-04-01T19:08:18.036Z,5.40
2019-04-01T19:10:47.847Z,5.67
2019-04-01T19:13:17.656Z,5.10
2019-04-01T19:15:48.146Z,5.50
2019-04-01T19:18:20.363Z,5.80
2019-04-01T19:20:56.152Z,5.67
2019-04-01T19:23:21.383Z,5.57
2019-04-01T19:25:51.654Z,4.50
2019-04-01T19:28:21.421Z,4.77
2019-04-01T19:30:51.186Z,5.07
2019-04-01T19:33:21.899Z,4.47
2019-04-01T19:35:52.274Z,5.03
2019-04-01T19:38:21.908Z,4.47
2019-04-01T19:40:52.161Z,5.10
2019-04-01T19:43:22.300Z,5.07
2019-04-01T19:45:51.762Z,4.73
2019-04-01T19:48:21.864Z,4.67
2019-04-01T19:50:51.614Z,4.33
2019-04-01T19:53:21.049Z,4.60
2019-04-01T19:55:50.964Z,5.00
2019-04-01T19:58:22.101Z,4.57
2019-04-01T20:00:52.375Z,5.07
2019-04-01T20:03:22.175Z,4.60
2019-04-01T20:05:51.942Z,4.73
2019-04-01T20:08:21.383Z,4.70
2019-04-01T20:10:50.751Z,5.33
2019-04-01T20:13:20.941Z,4.33
2019-04-01T20:15:50.760Z,4.73
2019-04-01T20:18:21.512Z,4.90
2019-04-01T20:20:51.476Z,4.70
2019-04-01T20:23:22.155Z,4.53
2019-04-01T20:25:52.486Z,4.57
2019-04-01T20:28:22.379Z,4.40
2019-04-01T20:30:51.925Z,4.83
2019-04-01T20:33:21.464Z,4.30
2019-04-01T20:35:50.878Z,4.47
2019-04-01T20:38:20.512Z,4.87
2019-04-01T20:40:50.063Z,3.93
2019-04-01T20:43:19.655Z,4.50
2019-04-01T20:45:49.091Z,4.50
2019-04-01T20:48:18.790Z,4.17
2019-04-01T20:50:48.244Z,4.37
2019-04-01T20:53:19.029Z,4.40
2019-04-01T20:55:50.565Z,4.10
2019-04-01T20:58:19.704Z,4.77
2019-04-01T21:00:49.361Z,4.10
2019-04-01T21:03:22.059Z,4.47
2019-04-01T21:05:53.160Z,4.40
2019-04-01T21:08:23.223Z,4.40
2019-04-01T21:10:52.915Z,4.30
2019-04-01T21:13:22.315Z,4.60
2019-04-01T21:15:51.972Z,4.07
2019-04-01T21:18:21.584Z,4.03
2019-04-01T21:20:51.014Z,4.10
2019-04-01T21:23:20.452Z,3.60
2019-04-01T21:25:49.801Z,4.40
2019-04-01T21:28:19.375Z,3.80
2019-04-01T21:30:49.099Z,4.00
2019-04-01T21:33:18.893Z,3.83
2019-04-01T21:35:48.540Z,4.20
2019-04-01T21:38:18.118Z,4.20
2019-04-01T21:40:49.393Z,3.83
2019-04-01T21:43:20.092Z,3.70
2019-04-01T21:45:51.021Z,4.17
2019-04-01T21:48:21.160Z,3.90
2019-04-01T21:50:52.509Z,4.03
2019-04-01T21:53:22.129Z,3.93
2019-04-01T21:55:53.160Z,4.63
2019-04-01T21:58:23.647Z,3.70
2019-04-01T22:00:55.587Z,3.90
2019-04-01T22:03:26.899Z,3.83
2019-04-01T22:05:58.561Z,3.77
2019-04-01T22:08:28.313Z,4.00
2019-04-01T22:10:57.658Z,4.20
2019-04-01T22:13:27.438Z,3.90
2019-04-01T22:15:57.441Z,3.93
2019-04-01T22:18:26.902Z,3.50
2019-04-01T22:20:56.366Z,3.63
2019-04-01T22:23:25.787Z,4.13
2019-04-01T22:25:55.659Z,3.67
2019-04-01T22:28:25.148Z,3.13
2019-04-01T22:30:54.725Z,3.10
2019-04-01T22:33:24.147Z,3.33
2019-04-01T22:35:54.098Z,3.80
2019-04-01T22:38:25.249Z,3.63
2019-04-01T22:40:55.025Z,3.07
2019-04-01T22:43:25.361Z,3.53
2019-04-01T22:45:55.420Z,3.47
2019-04-01T22:48:24.979Z,3.57
2019-04-01T22:50:54.334Z,2.93
2019-04-01T22:53:23.847Z,3.47
2019-04-01T22:55:53.257Z,3.10
2019-04-01T22:58:22.919Z,3.00
2019-04-01T23:00:52.318Z,3.43
2019-04-01T23:03:21.716Z,3.40
2019-04-01T23:05:51.087Z,3.47
2019-04-01T23:08:20.686Z,3.10
2019-04-01T23:10:50.109Z,3.40
2019-04-01T23:13:20.164Z,2.93
2019-04-01T23:15:49.796Z,3.10
2019-04-01T23:18:19.582Z,3.43
2019-04-01T23:20:48.983Z,3.17
2019-04-01T23:23:18.345Z,3.23
2019-04-01T23:25:47.752Z,3.47
2019-04-01T23:28:17.086Z,2.90
2019-04-01T23:30:58.619Z,3.20
2019-04-01T23:33:28.046Z,3.20
2019-04-01T23:35:57.470Z,3.63
2019-04-01T23:38:26.876Z,2.97
2019-04-01T23:40:56.454Z,3.20
2019-04-01T23:43:26.252Z,2.93
2019-04-01T23:45:56.022Z,2.93
2019-04-01T23:48:25.454Z,3.07
2019-04-01T23:50:54.846Z,3.00
2019-04-01T23:53:24.185Z,2.90
2019-04-01T23:55:53.728Z,3.07
2019-04-01T23:58:23.142Z,2.77
